createdAt,value
2019-04-10T00:02:23.860Z,100233.97
2019-04-10T00:04:55.776Z,100227.00
2019-04-10T00:07:27.483Z,100234.23
2019-04-10T00:09:59.364Z,100236.13
2019-04-10T00:12:31.807Z,100228.06
2019-04-10T00:15:05.088Z,100225.38
2019-04-10T00:17:37.492Z,100226.45
2019-04-10T00:20:09.985Z,100217.59
2019-04-10T00:22:42.320Z,100219.73
2019-04-10T00:25:14.899Z,100216.77
2019-04-10T00:27:47.165Z,100215.94
2019-04-10T00:30:18.768Z,100222.65
2019-04-10T00:32:50.409Z,100217.55
2019-04-10T00:35:23.322Z,100224.53
2019-04-10T00:37:55.543Z,100217.81
2019-04-10T00:40:27.726Z,100217.02
2019-04-10T00:43:00.278Z,100218.35
2019-04-10T00:45:32.112Z,100218.38
2019-04-10T00:48:04.206Z,100219.44
2019-04-10T00:50:36.990Z,100224.52
2019-04-10T00:53:08.782Z,100220.76
2019-04-10T00:55:41.463Z,100221.57
2019-04-10T00:58:14.107Z,100214.33
2019-04-10T01:00:45.821Z,100218.61
2019-04-10T01:03:38.177Z,100222.09
2019-04-10T01:06:09.921Z,100218.88
2019-04-10T01:08:42.761Z,100222.63
2019-04-10T01:11:15.572Z,100218.61
2019-04-10T01:13:47.523Z,100215.12
2019-04-10T01:16:19.604Z,100214.84
2019-04-10T01:18:51.371Z,100216.98
2019-04-10T01:21:23.344Z,100218.87
2019-04-10T01:23:55.304Z,100221.83
2019-04-10T01:26:28.249Z,100219.13
2019-04-10T01:29:00.910Z,100220.19
2019-04-10T01:31:32.722Z,100219.12
2019-04-10T01:34:05.309Z,100220.45
2019-04-10T01:36:37.510Z,100221.26
2019-04-10T01:39:10.994Z,100220.45
2019-04-10T01:41:43.618Z,100217.48
2019-04-10T01:44:15.543Z,100221.77
2019-04-10T01:46:48.625Z,100216.39
2019-04-10T01:49:20.392Z,100211.84
2019-04-10T01:51:52.237Z,100209.39
2019-04-10T01:54:24.827Z,100211.00
2019-04-10T01:56:57.667Z,100212.89
2019-04-10T01:59:32.110Z,100218.27
2019-04-10T02:02:10.242Z,100214.23
2019-04-10T02:04:42.018Z,100219.33
2019-04-10T02:07:13.951Z,100218.53
2019-04-10T02:09:45.994Z,100217.97
2019-04-10T02:12:18.642Z,100216.09
2019-04-10T02:14:50.382Z,100217.43
2019-04-10T02:17:22.449Z,100216.35
2019-04-10T02:19:54.630Z,100211.24
2019-04-10T02:22:28.651Z,100213.13
2019-04-10T02:25:00.392Z,100205.86
2019-04-10T02:27:32.199Z,100211.24
2019-04-10T02:30:07.710Z,100210.69
2019-04-10T02:32:41.136Z,100208.84
2019-04-10T02:35:16.962Z,100213.66
2019-04-10T02:37:49.539Z,100209.63
2019-04-10T02:40:21.151Z,100216.06
2019-04-10T02:42:54.545Z,100210.16
2019-04-10T02:45:26.746Z,100212.83
2019-04-10T02:48:01.481Z,100214.97
2019-04-10T02:50:33.467Z,100223.84
2019-04-10T02:53:05.621Z,100224.35
2019-04-10T02:55:38.708Z,100220.88
2019-04-10T02:58:10.555Z,100223.01
2019-04-10T03:00:43.983Z,100217.13
2019-04-10T03:03:16.054Z,100218.47
2019-04-10T03:05:48.787Z,100217.13
2019-04-10T03:08:39.550Z,100214.97
2019-04-10T03:10:59.697Z,100215.53
2019-04-10T03:13:28.867Z,100220.36
2019-04-10T03:16:00.673Z,100222.00
2019-04-10T03:18:32.767Z,100224.95
2019-04-10T03:21:04.847Z,100222.00
2019-04-10T03:23:37.760Z,100219.34
2019-04-10T03:26:09.761Z,100219.90
2019-04-10T03:28:41.540Z,100219.39
2019-04-10T03:31:15.167Z,100223.42
2019-04-10T03:34:09.229Z,100219.70
2019-04-10T03:36:43.354Z,100222.66
2019-04-10T03:39:15.415Z,100227.23
2019-04-10T03:41:47.047Z,100224.01
2019-04-10T03:44:18.928Z,100219.44
2019-04-10T03:46:51.012Z,100220.80
2019-04-10T03:49:23.885Z,100217.84
2019-04-10T03:51:56.721Z,100216.77
2019-04-10T03:54:28.618Z,100211.13
2019-04-10T03:57:00.504Z,100213.78
2019-04-10T03:59:32.683Z,100206.78
2019-04-10T04:02:05.276Z,100212.91
2019-04-10T04:04:37.752Z,100216.38
2019-04-10T04:07:09.667Z,100220.41
2019-04-10T04:09:41.917Z,100221.70
2019-04-10T04:12:14.746Z,100224.38
2019-04-10T04:14:46.479Z,100216.30
2019-04-10T04:17:18.159Z,100231.61
2019-04-10T04:19:52.545Z,100231.55
2019-04-10T04:22:23.746Z,100243.06
2019-04-10T04:24:55.784Z,100245.39
2019-04-10T04:27:27.443Z,100251.02
2019-04-10T04:29:59.714Z,100251.23
2019-04-10T04:32:33.307Z,100249.02
2019-04-10T04:35:05.827Z,100248.97
2019-04-10T04:37:37.919Z,100253.16
2019-04-10T04:40:11.254Z,100250.25
2019-04-10T04:42:42.997Z,100256.29
2019-04-10T04:45:14.567Z,100256.38
2019-04-10T04:47:46.342Z,100249.92
2019-04-10T04:50:18.296Z,100248.23
2019-04-10T04:52:50.161Z,100247.81
2019-04-10T04:55:22.115Z,100246.73
2019-04-10T04:57:53.989Z,100253.15
2019-04-10T05:00:25.821Z,100251.81
2019-04-10T05:02:58.026Z,100246.97
2019-04-10T05:05:29.675Z,100243.92
2019-04-10T05:08:04.102Z,100243.09
2019-04-10T05:10:35.707Z,100247.56
2019-04-10T05:13:08.218Z,100249.27
2019-04-10T05:15:40.840Z,100250.74
2019-04-10T05:18:12.961Z,100248.09
2019-04-10T05:20:48.525Z,100247.38
2019-04-10T05:23:19.257Z,100250.16
2019-04-10T05:25:51.901Z,100245.44
2019-04-10T05:28:24.317Z,100244.51
2019-04-10T05:30:56.868Z,100245.14
2019-04-10T05:33:28.913Z,100242.27
2019-04-10T05:36:01.346Z,100243.27
2019-04-10T05:38:33.429Z,100237.58
2019-04-10T05:41:05.352Z,100246.84
2019-04-10T05:43:38.290Z,100249.88
2019-04-10T05:46:10.325Z,100246.30
2019-04-10T05:48:42.001Z,100240.52
2019-04-10T05:51:14.969Z,100236.28
2019-04-10T05:53:47.344Z,100234.16
2019-04-10T05:56:20.707Z,100237.55
2019-04-10T05:58:52.402Z,100241.30
2019-04-10T06:01:33.317Z,100242.39
2019-04-10T06:03:58.357Z,100241.53
2019-04-10T06:06:30.701Z,100242.67
2019-04-10T06:09:02.613Z,100235.02
2019-04-10T06:11:35.377Z,100236.67
2019-04-10T06:14:10.344Z,100239.51
2019-04-10T06:16:42.628Z,100242.31
2019-04-10T06:19:15.721Z,100241.91
2019-04-10T06:21:48.199Z,100238.74
2019-04-10T06:24:20.435Z,100229.88
2019-04-10T06:26:52.509Z,100239.15
2019-04-10T06:29:24.270Z,100234.58
2019-04-10T06:31:56.886Z,100246.81
2019-04-10T06:34:32.288Z,100256.58
2019-04-10T06:37:04.066Z,100261.45
2019-04-10T06:39:37.006Z,100267.75
2019-04-10T06:42:08.910Z,100267.58
2019-04-10T06:44:41.811Z,100268.52
2019-04-10T06:47:16.091Z,100258.95
2019-04-10T06:49:57.096Z,100259.37
2019-04-10T06:52:28.838Z,100260.90
2019-04-10T06:55:11.344Z,100254.69
2019-04-10T06:57:50.875Z,100254.89
2019-04-10T07:00:19.670Z,100255.27
2019-04-10T07:02:52.704Z,100254.15
2019-04-10T07:05:36.619Z,100255.17
2019-04-10T07:08:09.648Z,100257.03
2019-04-10T07:10:44.764Z,100251.70
2019-04-10T07:13:08.540Z,100252.62
2019-04-10T07:15:41.295Z,100243.91
2019-04-10T07:18:15.319Z,100237.45
2019-04-10T07:20:46.335Z,100229.27
2019-04-10T07:23:24.205Z,100229.72
2019-04-10T07:25:54.980Z,100224.34
2019-04-10T07:28:27.903Z,100224.34
2019-04-10T07:31:04.681Z,100220.73
2019-04-10T07:33:33.350Z,100226.84
2019-04-10T07:36:08.947Z,100225.56
2019-04-10T07:38:39.277Z,100220.29
2019-04-10T07:41:17.070Z,100219.98
2019-04-10T07:43:44.798Z,100224.50
2019-04-10T07:46:17.307Z,100223.52
2019-04-10T07:48:50.262Z,100222.98
2019-04-10T07:51:22.277Z,100222.08
2019-04-10T07:53:54.107Z,100223.27
2019-04-10T07:56:26.766Z,100225.66
2019-04-10T07:58:59.177Z,100223.97
2019-04-10T08:01:31.432Z,100219.59
2019-04-10T08:04:04.151Z,100216.36
2019-04-10T08:06:35.883Z,100206.29
2019-04-10T08:09:08.859Z,100205.62
2019-04-10T08:11:42.441Z,100207.45
2019-04-10T08:14:14.853Z,100214.98
2019-04-10T08:16:47.660Z,100205.59
2019-04-10T08:19:19.469Z,100207.33
2019-04-10T08:21:51.327Z,100208.11
2019-04-10T08:24:23.776Z,100210.92
2019-04-10T08:26:56.830Z,100215.89
2019-04-10T08:29:28.866Z,100207.66
2019-04-10T08:32:01.349Z,100209.86
2019-04-10T08:34:33.622Z,100208.52
2019-04-10T08:37:06.308Z,100204.47
2019-04-10T08:39:44.027Z,100201.26
2019-04-10T08:42:12.804Z,100205.17
2019-04-10T08:44:44.614Z,100203.77
2019-04-10T08:47:17.259Z,100203.67
2019-04-10T08:49:49.444Z,100201.48
2019-04-10T08:52:22.116Z,100195.72
2019-04-10T08:54:54.274Z,100185.24
2019-04-10T08:57:26.009Z,100188.41
2019-04-10T09:00:00.345Z,100183.59
2019-04-10T09:02:32.332Z,100176.22
2019-04-10T09:05:06.752Z,100176.39
2019-04-10T09:07:38.211Z,100163.69
2019-04-10T09:10:10.457Z,100165.82
2019-04-10T09:12:43.024Z,100172.27
2019-04-10T09:15:15.938Z,100168.66
2019-04-10T09:17:47.958Z,100171.05
2019-04-10T09:20:19.958Z,100169.49
2019-04-10T09:23:14.422Z,100171.05
2019-04-10T09:25:25.417Z,100167.27
2019-04-10T09:27:57.978Z,100172.95
2019-04-10T09:30:30.907Z,100168.38
2019-04-10T09:33:15.486Z,100170.00
2019-04-10T09:35:36.346Z,100165.15
2019-04-10T09:38:10.490Z,100167.59
2019-04-10T09:40:44.638Z,100166.16
2019-04-10T09:43:18.789Z,100171.61
2019-04-10T09:45:51.507Z,100164.98
2019-04-10T09:48:24.250Z,100163.28
2019-04-10T09:50:56.180Z,100152.59
2019-04-10T09:53:28.746Z,100154.05
2019-04-10T09:56:00.982Z,100160.38
2019-04-10T09:58:33.962Z,100152.71
2019-04-10T10:01:11.313Z,100157.73
2019-04-10T10:03:44.394Z,100157.53
2019-04-10T10:06:25.239Z,100162.08
2019-04-10T10:08:50.220Z,100170.34
2019-04-10T10:11:22.914Z,100172.34
2019-04-10T10:13:54.468Z,100170.80
2019-04-10T10:16:27.206Z,100182.64
2019-04-10T10:18:59.524Z,100177.89
2019-04-10T10:21:32.462Z,100173.34
2019-04-10T10:24:04.762Z,100171.53
2019-04-10T10:26:36.559Z,100173.91
2019-04-10T10:29:09.261Z,100167.80
2019-04-10T10:31:41.292Z,100168.00
2019-04-10T10:34:14.298Z,100160.69
2019-04-10T10:36:48.929Z,100159.91
2019-04-10T10:39:21.115Z,100163.64
2019-04-10T10:41:54.481Z,100167.20
2019-04-10T10:44:27.988Z,100164.03
2019-04-10T10:47:00.043Z,100156.35
2019-04-10T10:49:32.717Z,100155.56
2019-04-10T10:52:04.774Z,100153.02
2019-04-10T10:54:36.985Z,100153.02
2019-04-10T10:57:09.022Z,100154.38
2019-04-10T10:59:41.788Z,100156.93
2019-04-10T11:02:13.698Z,100152.80
2019-04-10T11:04:45.829Z,100157.72
2019-04-10T11:07:18.740Z,100155.95
2019-04-10T11:09:50.668Z,100155.36
2019-04-10T11:12:22.404Z,100153.17
2019-04-10T11:14:54.418Z,100149.59
2019-04-10T11:17:28.194Z,100143.59
2019-04-10T11:20:02.174Z,100133.33
2019-04-10T11:22:35.501Z,100135.41
2019-04-10T11:25:08.063Z,100133.80
2019-04-10T11:27:41.842Z,100130.77
2019-04-10T11:30:16.003Z,100135.50
2019-04-10T11:32:48.739Z,100135.82
2019-04-10T11:35:21.812Z,100129.25
2019-04-10T11:37:58.772Z,100131.62
2019-04-10T11:40:27.999Z,100131.34
2019-04-10T11:43:04.765Z,100124.80
2019-04-10T11:45:41.299Z,100127.32
2019-04-10T11:48:08.169Z,100120.95
2019-04-10T11:50:43.889Z,100122.45
2019-04-10T11:53:14.558Z,100125.23
2019-04-10T11:55:51.000Z,100125.22
2019-04-10T11:58:21.730Z,100118.05
2019-04-10T12:00:57.364Z,100113.03
2019-04-10T12:03:27.212Z,100110.61
2019-04-10T12:05:59.755Z,100109.55
2019-04-10T12:08:55.317Z,100110.18
2019-04-10T12:13:36.612Z,100111.50
2019-04-10T12:16:09.204Z,100100.02
2019-04-10T12:18:41.166Z,100107.47
2019-04-10T12:21:13.533Z,100103.05
2019-04-10T12:23:45.383Z,100096.61
2019-04-10T12:26:17.912Z,100098.39
2019-04-10T12:28:49.996Z,100098.33
2019-04-10T12:31:21.907Z,100087.88
2019-04-10T12:33:54.821Z,100088.44
2019-04-10T12:36:26.754Z,100083.01
2019-04-10T12:38:58.803Z,100081.31
2019-04-10T12:41:31.105Z,100081.69
2019-04-10T12:44:02.855Z,100083.48
2019-04-10T12:46:35.163Z,100086.77
2019-04-10T12:49:07.916Z,100087.52
2019-04-10T12:51:39.863Z,100085.78
2019-04-10T12:54:12.150Z,100089.17
2019-04-10T12:56:43.995Z,100086.70
2019-04-10T12:59:16.059Z,100085.97
2019-04-10T13:01:49.072Z,100088.42
2019-04-10T13:04:22.078Z,100084.78
2019-04-10T13:06:54.790Z,100088.52
2019-04-10T13:09:26.806Z,100086.19
2019-04-10T13:11:58.844Z,100077.68
2019-04-10T13:14:30.809Z,100086.01
2019-04-10T13:17:02.948Z,100084.07
2019-04-10T13:19:35.722Z,100083.49
2019-04-10T13:22:07.647Z,100083.85
2019-04-10T13:24:39.694Z,100085.63
2019-04-10T13:27:12.581Z,100085.08
2019-04-10T13:29:44.677Z,100087.43
2019-04-10T13:32:18.286Z,100082.27
2019-04-10T13:34:51.271Z,100075.13
2019-04-10T13:37:24.106Z,100076.65
2019-04-10T13:39:57.075Z,100070.91
2019-04-10T13:42:30.212Z,100068.67
2019-04-10T13:45:02.847Z,100062.12
2019-04-10T13:47:34.795Z,100062.12
2019-04-10T13:50:08.615Z,100064.97
2019-04-10T13:52:42.639Z,100066.99
2019-04-10T13:55:14.983Z,100072.53
2019-04-10T13:57:46.840Z,100070.80
2019-04-10T14:00:39.635Z,100073.95
2019-04-10T14:03:10.176Z,100064.70
2019-04-10T14:05:43.320Z,100067.27
2019-04-10T14:08:16.566Z,100068.28
2019-04-10T14:10:48.922Z,100074.23
2019-04-10T14:13:21.870Z,100072.23
2019-04-10T14:15:53.957Z,100081.87
2019-04-10T14:18:26.240Z,100088.34
2019-04-10T14:20:58.107Z,100083.02
2019-04-10T14:23:31.375Z,100089.77
2019-04-10T14:26:04.666Z,100095.14
2019-04-10T14:28:37.515Z,100098.27
2019-04-10T14:31:13.936Z,100098.83
2019-04-10T14:33:46.890Z,100102.72
2019-04-10T14:36:18.662Z,100096.89
2019-04-10T14:38:51.570Z,100097.89
2019-04-10T14:41:24.779Z,100098.59
2019-04-10T14:43:57.837Z,100101.40
2019-04-10T14:46:29.454Z,100100.43
2019-04-10T14:49:01.467Z,100109.34
2019-04-10T14:51:34.385Z,100112.16
2019-04-10T14:54:06.526Z,100112.05
2019-04-10T14:56:38.571Z,100122.80
2019-04-10T14:59:11.487Z,100119.45
2019-04-10T15:01:44.221Z,100125.95
2019-04-10T15:04:17.280Z,100127.15
2019-04-10T15:06:50.085Z,100144.16
2019-04-10T15:09:25.913Z,100177.72
2019-04-10T15:11:57.307Z,100174.64
2019-04-10T15:14:32.495Z,100182.73
2019-04-10T15:17:04.852Z,100172.56
2019-04-10T15:19:37.447Z,100172.13
2019-04-10T15:22:09.568Z,100170.28
2019-04-10T15:24:41.353Z,100169.32
2019-04-10T15:27:13.448Z,100168.59
2019-04-10T15:29:45.593Z,100167.67
2019-04-10T15:32:17.659Z,100161.74
2019-04-10T15:34:49.519Z,100161.49
2019-04-10T15:37:21.467Z,100168.97
2019-04-10T15:39:53.931Z,100165.69
2019-04-10T15:42:25.938Z,100167.80
2019-04-10T15:44:58.729Z,100170.38
2019-04-10T15:47:31.578Z,100177.28
2019-04-10T15:50:04.131Z,100177.77
2019-04-10T15:52:37.566Z,100193.64
2019-04-10T15:55:11.185Z,100207.03
2019-04-10T15:57:50.666Z,100212.33
2019-04-10T16:00:17.019Z,100218.28
2019-04-10T16:02:48.957Z,100214.77
2019-04-10T16:05:21.633Z,100213.13
2019-04-10T16:07:53.547Z,100223.42
2019-04-10T16:10:30.749Z,100236.11
2019-04-10T16:13:04.343Z,100242.42
2019-04-10T16:15:38.779Z,100243.71
2019-04-10T16:18:13.900Z,100249.42
2019-04-10T16:20:47.464Z,100247.70
2019-04-10T16:23:28.871Z,100244.65
2019-04-10T16:26:00.985Z,100251.92
2019-04-10T16:28:33.580Z,100252.75
2019-04-10T16:31:05.610Z,100252.75
2019-04-10T16:33:37.554Z,100257.12
2019-04-10T16:36:10.534Z,100253.02
2019-04-10T16:38:42.510Z,100256.33
2019-04-10T16:41:14.401Z,100259.88
2019-04-10T16:43:46.753Z,100260.46
2019-04-10T16:46:20.307Z,100254.98
2019-04-10T16:48:52.555Z,100257.16
2019-04-10T16:51:24.491Z,100264.35
2019-04-10T16:53:56.905Z,100261.41
2019-04-10T16:56:29.824Z,100256.27
2019-04-10T16:59:02.511Z,100261.17
2019-04-10T17:01:35.039Z,100256.59
2019-04-10T17:04:09.012Z,100255.93
2019-04-10T17:06:42.085Z,100262.64
2019-04-10T17:09:16.579Z,100263.08
2019-04-10T17:11:49.342Z,100268.66
2019-04-10T17:14:22.231Z,100272.73
2019-04-10T17:16:55.678Z,100265.80
2019-04-10T17:19:27.250Z,100268.98
2019-04-10T17:22:00.532Z,100266.22
2019-04-10T17:24:33.488Z,100261.30
2019-04-10T17:27:06.378Z,100266.41
2019-04-10T17:29:39.033Z,100272.62
2019-04-10T17:32:11.338Z,100265.98
2019-04-10T17:34:43.238Z,100259.66
2019-04-10T17:37:15.882Z,100264.38
2019-04-10T17:39:47.656Z,100272.31
2019-04-10T17:42:20.026Z,100280.33
2019-04-10T17:44:52.217Z,100272.09
2019-04-10T17:47:25.040Z,100272.95
2019-04-10T17:49:58.029Z,100273.81
2019-04-10T17:52:32.575Z,100275.48
2019-04-10T17:55:03.661Z,100283.84
2019-04-10T17:57:40.420Z,100287.17
2019-04-10T18:00:23.004Z,100290.98
2019-04-10T18:02:59.031Z,100296.95
2019-04-10T18:05:32.815Z,100293.84
2019-04-10T18:08:05.145Z,100299.48
2019-04-10T18:10:44.751Z,100307.08
2019-04-10T18:13:11.518Z,100306.86
2019-04-10T18:15:44.180Z,100302.03
2019-04-10T18:18:16.226Z,100302.27
2019-04-10T18:20:49.525Z,100309.70
2019-04-10T18:23:21.547Z,100316.31
2019-04-10T18:25:54.153Z,100313.38
2019-04-10T18:28:25.791Z,100326.09
2019-04-10T18:30:58.622Z,100324.03
2019-04-10T18:33:30.905Z,100322.75
2019-04-10T18:36:07.044Z,100321.72
2019-04-10T18:38:38.989Z,100325.57
2019-04-10T18:41:11.876Z,100321.28
2019-04-10T18:43:46.619Z,100329.78
2019-04-10T18:46:20.804Z,100334.99
2019-04-10T18:48:51.847Z,100329.88
2019-04-10T18:51:23.705Z,100325.41
2019-04-10T18:53:55.788Z,100324.92
2019-04-10T18:56:38.672Z,100321.73
2019-04-10T18:59:30.428Z,100316.37
2019-04-10T19:02:13.733Z,100318.11
2019-04-10T19:04:53.307Z,100323.32
2019-04-10T19:07:30.168Z,100328.39
2019-04-10T19:10:02.328Z,100327.69
2019-04-10T19:12:34.812Z,100325.83
2019-04-10T19:15:09.145Z,100325.13
2019-04-10T19:17:41.956Z,100328.50
2019-04-10T19:20:15.650Z,100335.15
2019-04-10T19:22:48.690Z,100332.51
2019-04-10T19:25:24.972Z,100332.05
2019-04-10T19:27:58.592Z,100330.19
2019-04-10T19:30:45.654Z,100330.84
2019-04-10T19:33:18.363Z,100337.33
2019-04-10T19:35:51.372Z,100334.03
2019-04-10T19:38:23.322Z,100330.59
2019-04-10T19:40:56.257Z,100337.02
2019-04-10T19:43:30.033Z,100329.72
2019-04-10T19:46:01.474Z,100332.84
2019-04-10T19:48:33.258Z,100333.83
2019-04-10T19:51:05.918Z,100335.19
2019-04-10T19:53:37.870Z,100344.55
2019-04-10T19:56:10.927Z,100354.40
2019-04-10T19:58:44.093Z,100357.94
2019-04-10T20:01:17.030Z,100372.59
2019-04-10T20:03:50.042Z,100378.19
2019-04-10T20:06:23.563Z,100378.83
2019-04-10T20:08:55.818Z,100379.70
2019-04-10T20:11:37.840Z,100374.66
2019-04-10T20:14:01.692Z,100379.63
2019-04-10T20:16:33.852Z,100376.73
2019-04-10T20:19:05.623Z,100382.17
2019-04-10T20:21:37.470Z,100382.07
2019-04-10T20:24:10.410Z,100379.81
2019-04-10T20:26:43.397Z,100383.81
2019-04-10T20:29:17.050Z,100383.16
2019-04-10T20:31:50.550Z,100378.75
2019-04-10T20:34:23.277Z,100378.92
2019-04-10T20:36:55.902Z,100376.25
2019-04-10T20:39:28.072Z,100386.35
2019-04-10T20:42:00.891Z,100384.64
2019-04-10T20:44:32.759Z,100376.74
2019-04-10T20:47:04.780Z,100378.23
2019-04-10T20:49:36.652Z,100380.54
2019-04-10T20:52:08.625Z,100388.47
2019-04-10T20:54:41.223Z,100381.84
2019-04-10T20:57:13.145Z,100388.75
2019-04-10T20:59:45.023Z,100390.55
2019-04-10T21:02:18.078Z,100392.03
2019-04-10T21:04:58.910Z,100400.09
2019-04-10T21:07:23.765Z,100396.45
2019-04-10T21:09:56.609Z,100405.03
2019-04-10T21:12:28.511Z,100409.30
2019-04-10T21:15:01.375Z,100413.81
2019-04-10T21:17:34.119Z,100410.11
2019-04-10T21:20:09.809Z,100419.35
2019-04-10T21:22:47.335Z,100422.38
2019-04-10T21:25:23.282Z,100417.31
2019-04-10T21:27:56.666Z,100411.52
2019-04-10T21:30:34.001Z,100403.63
2019-04-10T21:33:24.710Z,100394.69
2019-04-10T21:35:57.519Z,100400.66
2019-04-10T21:38:30.264Z,100412.08
2019-04-10T21:41:05.748Z,100417.00
2019-04-10T21:43:37.255Z,100421.70
2019-04-10T21:46:10.241Z,100427.64
2019-04-10T21:48:48.801Z,100427.87
2019-04-10T21:51:21.186Z,100424.84
2019-04-10T21:53:53.823Z,100429.98
2019-04-10T21:56:26.647Z,100434.29
2019-04-10T21:58:59.125Z,100435.11
2019-04-10T22:01:32.524Z,100433.19
2019-04-10T22:04:06.341Z,100432.62
2019-04-10T22:06:39.970Z,100429.11
2019-04-10T22:09:13.237Z,100437.00
2019-04-10T22:11:51.605Z,100440.23
2019-04-10T22:14:23.765Z,100433.19
2019-04-10T22:16:55.809Z,100436.47
2019-04-10T22:19:28.449Z,100439.41
2019-04-10T22:22:00.578Z,100443.57
2019-04-10T22:24:32.240Z,100446.03
2019-04-10T22:27:07.138Z,100444.47
2019-04-10T22:29:39.009Z,100436.38
2019-04-10T22:32:11.205Z,100444.05
2019-04-10T22:34:44.213Z,100440.51
2019-04-10T22:37:16.931Z,100439.72
2019-04-10T22:39:49.037Z,100439.86
2019-04-10T22:42:33.895Z,100441.33
2019-04-10T22:44:54.704Z,100444.36
2019-04-10T22:47:27.452Z,100437.37
2019-04-10T22:50:00.626Z,100430.10
2019-04-10T22:52:36.974Z,100432.88
2019-04-10T22:55:09.188Z,100429.34
2019-04-10T22:57:41.683Z,100431.52
2019-04-10T23:00:16.577Z,100426.14
2019-04-10T23:02:48.588Z,100431.00
2019-04-10T23:05:22.645Z,100423.98
2019-04-10T23:07:55.577Z,100428.74
2019-04-10T23:10:27.442Z,100423.68
2019-04-10T23:13:04.225Z,100428.59
2019-04-10T23:15:33.603Z,100430.58
2019-04-10T23:18:05.595Z,100428.48
2019-04-10T23:20:37.290Z,100432.09
2019-04-10T23:23:09.121Z,100437.66
2019-04-10T23:25:40.978Z,100431.77
2019-04-10T23:28:13.527Z,100427.52
2019-04-10T23:30:45.411Z,100419.44
2019-04-10T23:33:17.616Z,100417.52
2019-04-10T23:35:49.686Z,100418.08
2019-04-10T23:38:21.713Z,100418.92
2019-04-10T23:40:53.693Z,100418.92
2019-04-10T23:43:25.445Z,100420.28
2019-04-10T23:45:57.851Z,100415.67
2019-04-10T23:48:30.881Z,100420.28
2019-04-10T23:51:02.860Z,100419.48
2019-04-10T23:53:36.285Z,100420.84
2019-04-10T23:56:08.211Z,100425.40
2019-04-10T23:58:40.231Z,100427.58
